createdAt,value
2022-11-22T00:02:22.702Z,92.92
2022-11-22T00:07:25.358Z,92.65
2022-11-22T00:12:27.988Z,92.77
2022-11-22T00:17:31.720Z,92.47
2022-11-22T00:22:38.487Z,93.12
2022-11-22T00:27:44.023Z,93.12
2022-11-22T00:32:46.738Z,93.02
2022-11-22T00:37:49.540Z,93.20
2022-11-22T00:42:52.087Z,92.85
2022-11-22T00:47:54.704Z,93.12
2022-11-22T00:52:57.242Z,92.80
2022-11-22T00:57:59.779Z,93.21
2022-11-22T01:03:02.372Z,92.65
2022-11-22T01:08:05.162Z,92.64
2022-11-22T01:13:07.764Z,92.30
2022-11-22T01:18:10.331Z,92.42
2022-11-22T01:23:12.920Z,92.49
2022-11-22T01:28:15.777Z,92.27
2022-11-22T01:33:19.231Z,92.24
2022-11-22T01:38:21.821Z,92.26
2022-11-22T01:43:26.420Z,93.09
2022-11-22T01:48:44.212Z,93.56
2022-11-22T01:53:47.221Z,93.78
2022-11-22T01:58:56.908Z,94.01
2022-11-22T02:04:02.813Z,94.74
2022-11-22T02:09:12.815Z,95.08
2022-11-22T02:14:18.801Z,94.90
2022-11-22T02:19:28.787Z,95.61
2022-11-22T02:24:46.998Z,95.92
2022-11-22T02:29:49.666Z,95.42
2022-11-22T02:34:52.339Z,95.78
2022-11-22T02:40:03.856Z,95.14
2022-11-22T02:45:06.859Z,94.62
2022-11-22T02:50:09.795Z,94.70
2022-11-22T02:55:12.590Z,95.35
2022-11-22T03:00:15.933Z,95.41
2022-11-22T03:05:18.586Z,95.73
2022-11-22T03:10:21.221Z,97.84
2022-11-22T03:15:23.936Z,99.51
2022-11-22T03:20:27.025Z,99.43
2022-11-22T03:25:29.599Z,99.63
2022-11-22T03:30:32.502Z,99.34
2022-11-22T03:35:35.117Z,98.85
2022-11-22T03:40:38.195Z,98.08
2022-11-22T03:45:46.355Z,98.85
2022-11-22T03:50:49.111Z,98.74
2022-11-22T03:55:51.796Z,98.66
2022-11-22T04:00:54.553Z,99.24
2022-11-22T04:05:57.272Z,100.00
2022-11-22T04:10:59.807Z,100.00
2022-11-22T04:16:02.668Z,100.00
2022-11-22T04:21:23.639Z,100.00
2022-11-22T04:26:26.330Z,100.00
2022-11-22T04:31:47.118Z,100.00
2022-11-22T04:36:49.700Z,100.00
2022-11-22T04:42:13.412Z,100.00
2022-11-22T04:47:36.168Z,100.00
2022-11-22T04:52:54.008Z,100.00
2022-11-22T04:57:59.970Z,100.00
2022-11-22T05:03:04.401Z,100.00
2022-11-22T05:08:07.781Z,100.00
2022-11-22T05:13:10.292Z,100.00
2022-11-22T05:18:13.119Z,100.00
2022-11-22T05:23:34.693Z,100.00
2022-11-22T05:28:39.282Z,100.00
2022-11-22T05:33:43.537Z,100.00
2022-11-22T05:38:46.757Z,100.00
2022-11-22T05:43:49.440Z,100.00
2022-11-22T05:48:53.276Z,100.00
2022-11-22T05:53:55.801Z,100.00
2022-11-22T05:58:58.450Z,100.00
2022-11-22T06:04:01.077Z,100.00
2022-11-22T06:09:04.532Z,100.00
2022-11-22T06:14:09.091Z,100.00
2022-11-22T06:19:12.851Z,100.00
2022-11-22T06:24:15.448Z,100.00
2022-11-22T06:29:18.445Z,100.00
2022-11-22T06:34:21.041Z,100.00
2022-11-22T06:39:23.597Z,100.00
2022-11-22T06:44:26.258Z,100.00
2022-11-22T06:49:29.317Z,99.41
2022-11-22T06:54:32.069Z,99.50
2022-11-22T06:59:35.023Z,98.56
2022-11-22T07:04:46.743Z,98.73
2022-11-22T07:09:58.864Z,98.95
2022-11-22T07:15:01.372Z,99.35
2022-11-22T07:20:06.432Z,99.33
2022-11-22T07:25:09.188Z,99.04
2022-11-22T07:30:12.175Z,99.50
2022-11-22T07:35:14.913Z,99.41
2022-11-22T07:40:17.479Z,98.59
2022-11-22T07:45:20.010Z,98.99
2022-11-22T07:50:22.613Z,98.69
2022-11-22T07:55:27.104Z,98.83
2022-11-22T08:00:30.052Z,99.31
2022-11-22T08:05:32.696Z,99.49
2022-11-22T08:10:35.376Z,99.49
2022-11-22T08:15:37.953Z,99.55
2022-11-22T08:20:40.520Z,99.84
2022-11-22T08:25:43.156Z,99.74
2022-11-22T08:30:45.695Z,100.00
2022-11-22T08:35:51.031Z,99.67
2022-11-22T08:40:53.657Z,100.00
2022-11-22T08:45:57.766Z,99.49
2022-11-22T08:51:10.991Z,99.61
2022-11-22T08:56:16.240Z,99.51
2022-11-22T09:01:21.461Z,99.22
2022-11-22T09:11:48.727Z,98.68
2022-11-22T09:16:53.389Z,98.37
2022-11-22T09:21:56.006Z,99.16
2022-11-22T09:26:58.553Z,98.64
2022-11-22T09:32:01.065Z,99.14
2022-11-22T09:37:03.652Z,99.21
2022-11-22T09:42:33.996Z,99.63
2022-11-22T09:53:40.347Z,99.21
2022-11-22T09:58:57.479Z,99.50
2022-11-22T10:04:11.202Z,99.59
2022-11-22T10:09:33.713Z,99.68
2022-11-22T10:14:36.384Z,99.36
2022-11-22T10:19:46.227Z,99.33
2022-11-22T10:24:54.607Z,99.04
2022-11-22T10:30:14.052Z,99.13
2022-11-22T10:35:22.784Z,99.75
2022-11-22T10:40:41.165Z,99.36
2022-11-22T10:45:48.675Z,99.32
2022-11-22T10:51:08.430Z,98.93
2022-11-22T10:56:10.919Z,98.34
2022-11-22T11:01:13.463Z,99.26
2022-11-22T11:06:24.498Z,98.50
2022-11-22T11:11:38.883Z,98.54
2022-11-22T11:16:41.691Z,99.13
2022-11-22T11:21:44.488Z,98.96
2022-11-22T11:26:58.512Z,99.28
2022-11-22T11:32:10.231Z,98.96
2022-11-22T11:37:31.568Z,98.67
2022-11-22T11:42:35.794Z,99.17
2022-11-22T11:47:38.374Z,99.46
2022-11-22T11:52:49.266Z,98.73
2022-11-22T11:57:53.612Z,98.63
2022-11-22T12:03:01.646Z,99.14
2022-11-22T12:08:29.355Z,98.95
2022-11-22T12:14:04.664Z,99.39
2022-11-22T12:25:24.344Z,98.99
2022-11-22T12:30:17.859Z,99.90
2022-11-22T12:35:23.881Z,99.66
2022-11-22T12:40:42.147Z,100.00
2022-11-22T12:45:50.479Z,100.00
2022-11-22T12:48:23.574Z,99.07
2022-11-22T12:50:56.668Z,100.00
2022-11-22T12:56:17.569Z,100.00
2022-11-22T13:01:26.507Z,100.00
2022-11-22T13:06:35.714Z,100.00
2022-11-22T13:11:43.004Z,100.00
2022-11-22T13:16:45.820Z,100.00
2022-11-22T13:22:12.386Z,100.00
2022-11-22T13:27:30.707Z,100.00
2022-11-22T13:32:35.076Z,99.84
2022-11-22T13:37:52.549Z,100.00
2022-11-22T13:43:17.900Z,100.00
2022-11-22T13:48:39.540Z,100.00
2022-11-22T13:53:46.784Z,99.82
2022-11-22T13:58:52.336Z,100.00
2022-11-22T14:04:19.645Z,100.00
2022-11-22T14:09:56.759Z,100.00
2022-11-22T14:15:23.922Z,100.00
2022-11-22T14:20:38.200Z,100.00
2022-11-22T14:25:40.829Z,100.00
2022-11-22T14:30:54.137Z,100.00
2022-11-22T14:36:09.792Z,100.00
2022-11-22T14:41:27.955Z,100.00
2022-11-22T14:46:57.220Z,100.00
2022-11-22T14:52:00.670Z,100.00
2022-11-22T14:57:06.442Z,100.00
2022-11-22T15:02:15.049Z,100.00
2022-11-22T15:09:12.138Z,100.00
2022-11-22T15:13:13.823Z,100.00
2022-11-22T16:02:03.765Z,100.00
2022-11-22T16:07:07.922Z,100.00
2022-11-22T16:12:35.785Z,100.00
2022-11-22T16:17:48.881Z,100.00
2022-11-22T16:23:09.817Z,100.00
2022-11-22T16:28:18.579Z,100.00
2022-11-22T16:33:21.407Z,100.00
2022-11-22T16:38:25.025Z,100.00
2022-11-22T16:43:34.455Z,100.00
2022-11-22T16:48:36.999Z,100.00
2022-11-22T16:53:39.560Z,100.00
2022-11-22T16:58:42.147Z,100.00
2022-11-22T17:03:46.549Z,100.00
2022-11-22T17:08:51.654Z,100.00
2022-11-22T17:13:54.738Z,100.00
2022-11-22T17:18:57.420Z,100.00
2022-11-22T17:24:02.364Z,100.00
2022-11-22T17:29:06.645Z,100.00
2022-11-22T17:34:11.408Z,100.00
2022-11-22T17:39:14.646Z,100.00
2022-11-22T17:44:18.047Z,100.00
2022-11-22T17:49:20.755Z,100.00
2022-11-22T17:54:23.645Z,100.00
2022-11-22T17:59:26.754Z,100.00
2022-11-22T18:04:29.717Z,100.00
2022-11-22T18:09:34.817Z,100.00
2022-11-22T18:14:37.779Z,100.00
2022-11-22T18:19:40.354Z,100.00
2022-11-22T18:24:43.014Z,100.00
2022-11-22T18:29:45.633Z,100.00
2022-11-22T18:34:50.034Z,100.00
2022-11-22T18:39:52.763Z,100.00
2022-11-22T18:44:55.309Z,100.00
2022-11-22T18:49:58.341Z,100.00
2022-11-22T18:55:01.286Z,100.00
2022-11-22T19:00:05.848Z,100.00
2022-11-22T19:05:08.664Z,100.00
2022-11-22T19:10:11.342Z,100.00
2022-11-22T19:15:18.351Z,100.00
2022-11-22T19:20:53.547Z,100.00
2022-11-22T19:25:48.383Z,100.00
2022-11-22T19:30:50.887Z,100.00
2022-11-22T19:36:01.367Z,100.00
2022-11-22T19:41:11.665Z,100.00
2022-11-22T19:46:15.055Z,100.00
2022-11-22T19:51:17.697Z,100.00
2022-11-22T19:56:21.139Z,100.00
2022-11-22T20:01:26.023Z,100.00
2022-11-22T20:06:30.063Z,100.00
2022-11-22T20:11:32.691Z,100.00
2022-11-22T20:16:37.182Z,100.00
2022-11-22T20:21:40.357Z,100.00
2022-11-22T20:26:43.812Z,100.00
2022-11-22T20:31:46.500Z,100.00
2022-11-22T20:36:49.135Z,100.00
2022-11-22T20:42:11.831Z,100.00
2022-11-22T20:47:15.173Z,100.00
2022-11-22T20:52:17.645Z,100.00
2022-11-22T20:57:20.295Z,100.00
2022-11-22T21:02:22.773Z,100.00
2022-11-22T21:07:26.912Z,100.00
2022-11-22T21:12:31.989Z,100.00
2022-11-22T21:17:46.073Z,100.00
2022-11-22T21:22:58.840Z,100.00
2022-11-22T21:28:01.414Z,100.00
2022-11-22T21:33:06.798Z,100.00
2022-11-22T21:38:09.503Z,100.00
2022-11-22T21:43:12.077Z,100.00
2022-11-22T21:48:15.372Z,100.00
2022-11-22T21:53:17.913Z,100.00
2022-11-22T21:58:22.423Z,100.00
2022-11-22T22:03:25.098Z,100.00
2022-11-22T22:08:29.558Z,100.00
2022-11-22T22:13:32.497Z,100.00
2022-11-22T22:18:37.992Z,100.00
2022-11-22T22:23:41.966Z,100.00
2022-11-22T22:28:47.919Z,100.00
2022-11-22T22:33:54.159Z,100.00
2022-11-22T22:38:56.650Z,100.00
2022-11-22T22:43:59.246Z,100.00
2022-11-22T22:49:01.907Z,100.00
2022-11-22T22:54:04.595Z,100.00
2022-11-22T22:59:07.989Z,100.00
2022-11-22T23:04:10.808Z,100.00
2022-11-22T23:09:13.487Z,100.00
2022-11-22T23:14:18.860Z,100.00
2022-11-22T23:19:21.909Z,100.00
2022-11-22T23:24:24.680Z,100.00
2022-11-22T23:29:30.910Z,100.00
2022-11-22T23:34:33.996Z,100.00
2022-11-22T23:39:36.529Z,100.00
2022-11-22T23:44:39.105Z,100.00
2022-11-22T23:49:41.727Z,100.00
2022-11-22T23:54:44.666Z,100.00
2022-11-22T23:59:47.282Z,100.00
